Flight Track Log - Related Links

Times and Time Zones

All times are in EST time to prevent confusion due to time zone crossing. See the N8684P flight status page for this flight to view local times or setup timezone preferences in your user account.

Time Position Orientation Groundspeed Altitude Reporting Facility
EST Latitude Longitude Course Direction KTS MPH feet Rate Location/Type
Mon 10:56:30 AM 33.7833 -111.8000 79° East 144 166 8,100  Level Phoenix TRACON
Mon 10:57:10 AM 33.7867 -111.7789 79° East 146 168 8,000 -59 Descending Albuquerque Center
Mon 10:58:12 AM 33.8036 -111.7294 68° East 161 185 8,000 290 Level Albuquerque Center
Mon 10:59:14 AM 33.8183 -111.6831 69° East 151 174 8,600 677 Climbing Albuquerque Center
Mon 11:00:16 AM 33.8350 -111.6344 68° East 132 152 9,400 435 Climbing Albuquerque Center
Mon 11:01:18 AM 33.8483 -111.5892 70° East 145 167 9,500 49 Climbing Albuquerque Center
Mon 11:02:19 AM 33.8650 -111.5400 68° East 159 183 9,500  Level Albuquerque Center
Mon 11:03:21 AM 33.8811 -111.4897 69° East 162 186 9,500  Level Albuquerque Center
Mon 11:04:23 AM 33.8969 -111.4394 69° East 161 185 9,500  Level Albuquerque Center
Mon 11:05:25 AM 33.9156 -111.3800 69° East 159 183 9,500  Level Albuquerque Center
Mon 11:06:27 AM 33.9294 -111.3294 72° East 160 184 9,500  Level Albuquerque Center
Mon 11:07:29 AM 33.9339 -111.2756 84° East 162 186 9,500  Level Albuquerque Center
Mon 11:08:31 AM 33.9406 -111.2222 81° East 161 185 9,500  Level Albuquerque Center
Mon 11:09:33 AM 33.9458 -111.1692 83° East 160 184 9,500  Level Albuquerque Center
Mon 11:10:35 AM 33.9525 -111.1164 81° East 160 184 9,500  Level Albuquerque Center
Mon 11:11:37 AM 33.9594 -111.0522 83° East 161 185 9,500  Level Albuquerque Center
Mon 11:12:39 AM 33.9656 -110.9992 82° East 161 185 9,500  Level Albuquerque Center
Mon 11:13:42 AM 33.9711 -110.9461 83° East 161 185 9,500  Level Albuquerque Center
Mon 11:14:44 AM 33.9769 -110.8936 82° East 160 184 9,500  Level Albuquerque Center
Mon 11:15:46 AM 33.9825 -110.8397 83° East 160 184 9,500  Level Albuquerque Center
Mon 11:16:48 AM 33.9883 -110.7864 82° East 161 185 9,500  Level Albuquerque Center
Mon 11:17:50 AM 33.9953 -110.7231 82° East 160 184 9,500 -48 Level Albuquerque Center
Mon 11:18:52 AM 33.9994 -110.6692 85° East 161 185 9,400 -97 Descending Albuquerque Center

Login

Don't have an account? Register now (free) for customized features, flight alerts, and more!